SBOSBO RUH / OERK
Speedbird OnlineSpeedbird Online RUH / OERK

King Khaled International Airport
03:23 18°C

Location Riyadh, Saudi Arabia
Latitude: 24.957599639892578
Longitude: 46.69879913330078
Local Time 03:23 on 28 Feb 2024
UTC +3 hours (Asia/Riyadh)
Currency £1 equals SAR 4.76
METAR OERK 280000Z 15009KT 7000 NSC 18/02 Q1012 NOSIG
TAF TAF OERK 272300Z 2800/2906 14012KT 6000 NSC TEMPO 2800/2808 3000 DU BECMG 2808/2810 33010KT BECMG 2814/2816 03016KT FEW040 PROB40 TEMPO 2814/2820 3000 BLDU
Weather As Of 28 Feb 2024 03:23
Description Few clouds
Wind 17 km/h from South-East (150°)
Cloud Cover 20%
Precipitation Rain: none, Snow: none
Sunrise 06:17
Sunset 17:54
NOTAM 17 active NOTAM
Rotations During the last 90 days there were
78 flights from LHR
75 flights to LHR
Lounges Premier Lounge- TEMPORARILY CLOSED, Terminal 1
Plaza Premium Lounge, Terminal 2
Wellcome Lounge, Terminal 2
Web Wikipedia
Codes IATA: RUH
ICAO: OERK
Altitude 625 Meter / 2049 Feet
Distance 4,904 KM / 3,047 Miles
from London.
Runways
RunwayLength (m)Surface
15L4205Asphalt
15R4205Asphalt
33L4205Asphalt
33R4205Asphalt
Radio
TypeDescriptionFrequency
APPRIYADH APP120
ATISATIS127.15
Ctrl126
GNDGND121.6
TWRTWR118.6
Live ATC



Support Speedbird Online

© 2017-2024 Speedbird Online